createdAt,value
2023-04-15T00:00:58.559Z,47.47
2023-04-15T00:03:28.777Z,50.20
2023-04-15T00:05:55.543Z,54.45
2023-04-15T00:08:22.217Z,60.38
2023-04-15T00:10:49.406Z,54.13
2023-04-15T00:13:16.718Z,52.10
2023-04-15T00:15:43.459Z,55.60
2023-04-15T00:20:37.475Z,54.75
2023-04-15T00:23:04.493Z,54.78
2023-04-15T00:25:31.624Z,54.45
2023-04-15T00:27:58.500Z,51.97
2023-04-15T00:30:25.800Z,53.42
2023-04-15T00:32:52.870Z,53.92
2023-04-15T00:35:19.567Z,52.78
2023-04-15T00:37:46.552Z,55.65
2023-04-15T00:40:14.168Z,58.25
2023-04-15T00:42:41.283Z,58.45
2023-04-15T00:45:09.089Z,57.28
2023-04-15T00:47:37.750Z,59.97
2023-04-15T00:50:05.165Z,60.70
2023-04-15T00:52:32.670Z,66.60
2023-04-15T00:55:06.749Z,59.83
2023-04-15T00:57:36.906Z,59.50
2023-04-15T01:00:05.883Z,61.80
2023-04-15T01:02:33.528Z,62.92
2023-04-15T01:05:00.687Z,62.38
2023-04-15T01:07:27.316Z,57.67
2023-04-15T01:09:54.197Z,65.43
2023-04-15T01:12:21.289Z,63.15
2023-04-15T01:14:48.648Z,64.55
2023-04-15T01:17:15.363Z,61.20
2023-04-15T01:19:42.482Z,67.90
2023-04-15T01:22:11.756Z,75.05
2023-04-15T01:24:40.194Z,65.93
2023-04-15T01:27:07.193Z,72.55
2023-04-15T01:29:38.574Z,70.75
2023-04-15T01:32:05.972Z,73.63
2023-04-15T01:34:41.671Z,76.50
2023-04-15T01:51:09.261Z,79.15
2023-04-15T01:53:45.903Z,88.70
2023-04-15T01:56:16.813Z,87.55
2023-04-15T01:58:43.746Z,86.68
2023-04-15T02:03:40.032Z,99.47
2023-04-15T02:06:07.882Z,86.00
2023-04-15T02:08:42.726Z,90.75
2023-04-15T02:11:09.587Z,85.75
2023-04-15T02:13:37.464Z,77.47
2023-04-15T02:16:05.076Z,85.70
2023-04-15T02:18:33.949Z,86.68
2023-04-15T02:21:01.132Z,80.55
2023-04-15T02:23:28.319Z,84.65
2023-04-15T02:26:00.909Z,77.63
2023-04-15T02:28:29.312Z,84.30
2023-04-15T02:30:59.610Z,83.47
2023-04-15T02:33:29.457Z,85.72
2023-04-15T02:35:56.315Z,82.47
2023-04-15T02:38:24.392Z,78.43
2023-04-15T02:40:51.738Z,72.43
2023-04-15T02:43:18.506Z,83.45
2023-04-15T02:48:15.646Z,73.10
2023-04-15T02:50:42.896Z,71.85
2023-04-15T02:53:10.521Z,82.03
2023-04-15T02:55:37.244Z,79.55
2023-04-15T03:00:37.132Z,71.07
2023-04-15T03:03:07.605Z,74.25
2023-04-15T03:05:34.751Z,79.57
2023-04-15T03:08:06.499Z,71.25
2023-04-15T03:10:33.643Z,69.65
2023-04-15T03:13:07.155Z,71.22
2023-04-15T03:15:34.840Z,72.43
2023-04-15T03:18:08.504Z,81.00
2023-04-15T03:20:39.052Z,64.00
2023-04-15T03:23:17.683Z,67.88
2023-04-15T03:26:03.418Z,73.03
2023-04-15T03:31:16.201Z,70.82
2023-04-15T03:33:49.764Z,73.07
2023-04-15T03:36:21.192Z,76.10
2023-04-15T03:38:52.021Z,65.97
2023-04-15T03:41:19.361Z,61.67
2023-04-15T03:43:47.877Z,76.15
2023-04-15T03:46:20.413Z,66.43
2023-04-15T03:48:48.547Z,71.43
2023-04-15T03:51:18.431Z,65.53
2023-04-15T03:53:47.367Z,70.95
2023-04-15T03:56:20.839Z,65.13
2023-04-15T03:58:48.263Z,65.82
2023-04-15T04:01:16.632Z,77.50
2023-04-15T04:03:43.615Z,68.10
2023-04-15T04:06:18.718Z,69.88
2023-04-15T04:08:46.953Z,64.88
2023-04-15T04:11:14.102Z,69.40
2023-04-15T04:13:42.635Z,73.85
2023-04-15T04:16:10.426Z,70.63
2023-04-15T04:18:38.070Z,62.78
2023-04-15T04:21:04.912Z,64.38
2023-04-15T04:25:58.733Z,63.20
2023-04-15T04:28:36.474Z,66.70
2023-04-15T04:31:05.526Z,67.70
2023-04-15T04:33:37.268Z,63.13
2023-04-15T04:36:08.007Z,63.85
2023-04-15T04:38:43.746Z,69.63
2023-04-15T04:41:12.775Z,66.78
2023-04-15T04:43:39.779Z,75.72
2023-04-15T04:46:09.003Z,70.13
2023-04-15T04:48:36.368Z,66.60
2023-04-15T04:51:06.653Z,69.25
2023-04-15T04:53:33.907Z,63.40
2023-04-15T04:56:05.351Z,60.97
2023-04-15T04:58:35.878Z,66.75
2023-04-15T05:01:03.590Z,61.42
2023-04-15T05:03:30.488Z,58.90
2023-04-15T05:05:59.868Z,58.05
2023-04-15T05:08:33.208Z,62.92
2023-04-15T05:11:00.330Z,61.22
2023-04-15T05:13:27.216Z,52.72
2023-04-15T05:15:55.063Z,63.80
2023-04-15T05:18:21.975Z,54.40
2023-04-15T05:23:18.165Z,56.00
2023-04-15T05:25:45.439Z,58.17
2023-04-15T05:28:15.622Z,53.67
2023-04-15T05:30:42.449Z,57.15
2023-04-15T05:35:37.074Z,54.97
2023-04-15T05:38:03.811Z,48.70
2023-04-15T05:42:57.794Z,55.72
2023-04-15T05:45:24.407Z,51.72
2023-04-15T05:47:55.212Z,51.17
2023-04-15T05:50:22.382Z,44.75
2023-04-15T05:52:49.583Z,46.63
2023-04-15T05:55:16.711Z,48.45
2023-04-15T05:57:43.466Z,44.70
2023-04-15T06:02:37.385Z,43.97
2023-04-15T06:05:04.589Z,42.70
2023-04-15T06:07:31.304Z,40.35
2023-04-15T06:10:00.946Z,37.33
2023-04-15T06:12:28.811Z,36.55
2023-04-15T06:14:55.526Z,38.40
2023-04-15T06:19:51.105Z,38.70
2023-04-15T06:22:17.669Z,35.58
2023-04-15T06:24:45.368Z,34.78
2023-04-15T06:27:13.434Z,34.42
2023-04-15T06:29:40.467Z,34.25
2023-04-15T06:32:07.247Z,27.00
2023-04-15T06:37:01.464Z,27.67
2023-04-15T06:39:28.242Z,26.80
2023-04-15T06:44:22.155Z,26.23
2023-04-15T06:46:51.834Z,26.08
2023-04-15T06:49:21.040Z,29.42
2023-04-15T06:51:47.892Z,25.70
2023-04-15T06:54:14.568Z,26.55
2023-04-15T06:56:43.819Z,24.17
2023-04-15T06:59:11.085Z,26.55
2023-04-15T07:01:37.963Z,21.42
2023-04-15T07:04:04.848Z,19.27
2023-04-15T07:06:32.840Z,20.80
2023-04-15T07:09:03.788Z,20.25
2023-04-15T07:11:30.988Z,20.42
2023-04-15T07:14:04.274Z,21.98
2023-04-15T07:16:31.356Z,19.75
2023-04-15T07:19:00.664Z,20.80
2023-04-15T07:21:27.980Z,21.13
2023-04-15T07:23:55.009Z,19.80
2023-04-15T07:26:27.821Z,23.30
2023-04-15T07:28:55.946Z,24.92
2023-04-15T07:31:22.870Z,26.85
2023-04-15T07:33:49.806Z,29.60
2023-04-15T07:36:16.916Z,22.30
2023-04-15T07:38:47.316Z,24.27
2023-04-15T07:41:14.444Z,24.67
2023-04-15T07:43:43.790Z,20.40
2023-04-15T07:46:14.761Z,22.67
2023-04-15T07:48:41.975Z,25.85
2023-04-15T07:51:08.794Z,25.20
2023-04-15T07:56:02.170Z,24.73
2023-04-15T07:58:28.808Z,25.33
2023-04-15T08:00:55.566Z,31.77
2023-04-15T08:05:50.764Z,21.65
2023-04-15T08:08:25.583Z,26.90
2023-04-15T08:10:53.517Z,21.40
2023-04-15T08:13:23.463Z,22.25
2023-04-15T08:16:23.806Z,24.33
2023-04-15T08:18:52.328Z,25.55
2023-04-15T08:21:20.519Z,24.08
2023-04-15T08:23:50.374Z,28.92
2023-04-15T08:26:17.808Z,26.00
2023-04-15T08:28:46.153Z,30.55
2023-04-15T08:31:26.791Z,25.70
2023-04-15T08:34:07.819Z,20.65
2023-04-15T08:36:51.074Z,25.38
2023-04-15T08:39:25.808Z,27.80
2023-04-15T08:42:09.799Z,25.50
2023-04-15T08:47:56.180Z,25.05
2023-04-15T08:50:31.734Z,28.90
2023-04-15T08:53:10.621Z,23.33
2023-04-15T08:55:51.567Z,26.70
2023-04-15T08:58:21.221Z,28.17
2023-04-15T09:00:57.782Z,25.23
2023-04-15T09:03:25.070Z,21.08
2023-04-15T09:05:53.277Z,22.63
2023-04-15T09:08:19.933Z,21.95
2023-04-15T09:10:48.715Z,22.58
2023-04-15T09:13:31.129Z,24.45
2023-04-15T09:16:17.243Z,23.67
2023-04-15T09:18:47.839Z,30.30
2023-04-15T09:21:35.959Z,20.67
2023-04-15T09:24:07.718Z,21.70
2023-04-15T09:26:45.558Z,25.38
2023-04-15T09:29:16.318Z,26.40
2023-04-15T09:31:44.639Z,23.20
2023-04-15T09:34:11.791Z,26.88
2023-04-15T09:36:51.132Z,23.40
2023-04-15T09:39:21.828Z,23.40
2023-04-15T09:42:07.424Z,23.60
2023-04-15T09:44:34.492Z,22.40
2023-04-15T09:47:06.448Z,23.73
2023-04-15T09:49:37.237Z,19.70
2023-04-15T09:52:12.392Z,27.17
2023-04-15T09:54:58.917Z,24.13
2023-04-15T09:58:40.804Z,26.67
2023-04-15T10:08:03.865Z,23.88
2023-04-15T10:10:46.921Z,22.10
2023-04-15T10:14:25.936Z,20.75
2023-04-15T10:17:03.550Z,22.90
2023-04-15T10:19:43.104Z,24.02
2023-04-15T10:22:24.297Z,23.98
2023-04-15T10:24:59.232Z,24.67
2023-04-15T10:27:28.039Z,25.58
2023-04-15T10:30:01.136Z,25.10
2023-04-15T10:32:31.522Z,24.02
2023-04-15T10:35:06.213Z,24.85
2023-04-15T10:37:48.558Z,23.98
2023-04-15T10:40:54.396Z,24.27
2023-04-15T10:43:33.698Z,26.83
2023-04-15T10:46:28.723Z,28.65
2023-04-15T10:49:37.141Z,25.00
2023-04-15T10:52:15.334Z,26.02
2023-04-15T10:55:38.584Z,25.25
2023-04-15T10:58:21.394Z,25.25
2023-04-15T11:04:58.859Z,23.65
2023-04-15T11:08:09.526Z,23.60
2023-04-15T11:10:50.957Z,23.63
2023-04-15T11:13:36.179Z,23.08
2023-04-15T11:17:02.616Z,22.90
2023-04-15T11:19:59.052Z,26.13
2023-04-15T11:22:37.062Z,22.35
2023-04-15T11:25:15.157Z,22.45
2023-04-15T11:31:15.308Z,21.58
2023-04-15T11:41:49.575Z,23.15
2023-04-15T12:05:02.901Z,19.70
2023-04-15T12:07:59.766Z,23.92
2023-04-15T12:11:12.376Z,21.17
2023-04-15T12:13:54.195Z,23.33
2023-04-15T12:16:30.208Z,21.58
2023-04-15T12:19:43.296Z,21.90
2023-04-15T12:22:31.951Z,20.70
2023-04-15T12:25:01.852Z,19.23
2023-04-15T12:28:16.034Z,20.75
2023-04-15T12:31:05.914Z,22.00
2023-04-15T12:33:36.359Z,22.13
2023-04-15T12:36:10.187Z,22.67
2023-04-15T12:38:37.629Z,22.55
2023-04-15T12:41:04.903Z,22.40
2023-04-15T12:46:41.678Z,21.33
2023-04-15T12:49:14.189Z,23.90
2023-04-15T12:51:41.337Z,20.58
2023-04-15T12:54:12.062Z,21.40
2023-04-15T12:56:40.077Z,22.55
2023-04-15T12:59:10.518Z,23.13
2023-04-15T13:01:40.826Z,25.38
2023-04-15T13:04:08.706Z,22.23
2023-04-15T13:06:36.380Z,21.98
2023-04-15T13:09:14.404Z,18.50
2023-04-15T13:11:54.378Z,24.38
2023-04-15T13:14:22.277Z,23.63
2023-04-15T13:16:49.651Z,25.20
2023-04-15T13:19:20.003Z,22.83
2023-04-15T13:21:51.574Z,29.02
2023-04-15T13:24:20.041Z,24.10
2023-04-15T13:26:55.565Z,22.77
2023-04-15T13:29:32.130Z,27.02
2023-04-15T13:32:03.432Z,24.80
2023-04-15T13:34:30.890Z,27.25
2023-04-15T13:37:11.638Z,23.30
2023-04-15T13:39:41.998Z,25.80
2023-04-15T13:42:12.842Z,26.90
2023-04-15T13:44:40.319Z,27.42
2023-04-15T13:47:14.016Z,29.55
2023-04-15T13:49:43.769Z,25.25
2023-04-15T13:52:15.527Z,28.25
2023-04-15T13:54:42.642Z,26.05
2023-04-15T13:57:09.619Z,23.80
2023-04-15T13:59:36.944Z,24.00
2023-04-15T14:02:04.330Z,25.92
2023-04-15T14:04:32.383Z,24.05
2023-04-15T14:09:48.741Z,20.15
2023-04-15T14:12:21.976Z,21.70
2023-04-15T14:14:49.087Z,28.58
2023-04-15T14:17:16.442Z,23.35
2023-04-15T14:19:48.127Z,25.73
2023-04-15T14:22:16.290Z,21.60
2023-04-15T14:24:45.833Z,24.25
2023-04-15T14:27:12.970Z,21.38
2023-04-15T14:29:40.046Z,22.40
2023-04-15T14:32:12.034Z,21.23
2023-04-15T14:34:44.980Z,23.88
2023-04-15T14:37:11.792Z,22.70
2023-04-15T14:42:06.768Z,18.38
2023-04-15T14:44:33.951Z,24.25
2023-04-15T14:47:05.862Z,21.40
2023-04-15T14:49:41.612Z,21.92
2023-04-15T14:52:12.490Z,22.05
2023-04-15T14:54:39.275Z,22.63
2023-04-15T14:59:38.036Z,23.52
2023-04-15T15:02:06.280Z,25.98
2023-04-15T15:04:33.625Z,23.77
2023-04-15T15:07:02.783Z,26.45
2023-04-15T15:09:35.313Z,23.17
2023-04-15T15:12:09.279Z,29.15
2023-04-15T15:14:41.330Z,26.55
2023-04-15T15:17:10.303Z,20.67
2023-04-15T15:19:40.585Z,19.92
2023-04-15T15:22:09.038Z,20.80
2023-04-15T15:24:35.580Z,23.13
2023-04-15T15:27:02.906Z,21.67
2023-04-15T15:29:29.542Z,25.10
2023-04-15T15:31:56.607Z,24.13
2023-04-15T15:34:23.186Z,21.33
2023-04-15T15:36:49.715Z,23.85
2023-04-15T15:39:16.406Z,23.90
2023-04-15T15:44:09.831Z,22.90
2023-04-15T15:46:36.603Z,24.33
2023-04-15T15:51:32.219Z,27.05
2023-04-15T15:53:58.778Z,25.15
2023-04-15T15:56:28.756Z,26.35
2023-04-15T15:58:55.659Z,25.08
2023-04-15T16:01:24.195Z,28.27
2023-04-15T16:03:55.212Z,21.70
2023-04-15T16:06:24.549Z,25.00
2023-04-15T16:08:51.317Z,22.75
2023-04-15T16:13:44.532Z,23.27
2023-04-15T16:16:11.919Z,19.67
2023-04-15T16:18:44.991Z,19.85
2023-04-15T16:21:12.491Z,25.88
2023-04-15T16:23:41.176Z,21.42
2023-04-15T16:26:08.513Z,22.80
2023-04-15T16:28:38.093Z,19.38
2023-04-15T16:31:05.016Z,23.30
2023-04-15T16:33:32.703Z,23.85
2023-04-15T16:36:02.620Z,21.17
2023-04-15T16:38:29.201Z,22.80
2023-04-15T16:41:00.589Z,21.27
2023-04-15T16:43:33.225Z,25.98
2023-04-15T16:46:00.232Z,19.80
2023-04-15T16:50:55.242Z,18.70
2023-04-15T16:53:25.283Z,21.35
2023-04-15T16:55:52.319Z,20.73
2023-04-15T16:58:19.248Z,21.05
2023-04-15T17:00:46.876Z,20.88
2023-04-15T17:03:13.609Z,20.48
2023-04-15T17:05:42.593Z,22.50
2023-04-15T17:08:09.494Z,18.27
2023-04-15T17:10:36.370Z,20.52
2023-04-15T17:15:31.506Z,19.67
2023-04-15T17:18:00.665Z,20.45
2023-04-15T17:20:27.737Z,23.15
2023-04-15T17:23:02.176Z,22.02
2023-04-15T17:25:48.819Z,20.35
2023-04-15T17:28:41.045Z,17.30
2023-04-15T17:31:21.750Z,18.50
2023-04-15T17:34:00.054Z,18.42
2023-04-15T17:36:35.779Z,23.97
2023-04-15T17:39:07.858Z,22.38
2023-04-15T17:41:34.600Z,26.73
2023-04-15T17:44:01.366Z,22.30
2023-04-15T17:48:54.686Z,19.77
2023-04-15T17:51:21.844Z,24.00
2023-04-15T17:53:48.826Z,22.13
2023-04-15T17:56:15.929Z,25.08
2023-04-15T17:58:43.710Z,22.35
2023-04-15T18:01:13.697Z,26.42
2023-04-15T18:04:09.057Z,21.33
2023-04-15T18:06:36.422Z,29.98
2023-04-15T18:09:07.316Z,25.52
2023-04-15T18:11:34.009Z,27.38
2023-04-15T18:14:03.235Z,25.98
2023-04-15T18:16:30.294Z,26.40
2023-04-15T18:18:57.265Z,23.63
2023-04-15T18:21:24.075Z,25.63
2023-04-15T18:26:18.267Z,27.80
2023-04-15T18:28:44.840Z,28.73
2023-04-15T18:31:14.548Z,24.17
2023-04-15T18:33:41.151Z,33.30
2023-04-15T18:36:10.571Z,29.13
2023-04-15T18:38:37.313Z,27.58
2023-04-15T18:43:49.490Z,31.63
2023-04-15T18:46:27.739Z,28.38
2023-04-15T18:48:57.211Z,27.77
2023-04-15T18:55:29.618Z,27.27
2023-04-15T18:59:26.114Z,28.90
2023-04-15T19:01:40.801Z,28.75
2023-04-15T19:04:14.095Z,33.70
2023-04-15T19:07:14.047Z,31.65
2023-04-15T19:09:53.372Z,33.25
2023-04-15T19:15:34.851Z,34.72
2023-04-15T19:18:01.928Z,38.03
2023-04-15T19:20:31.589Z,34.10
2023-04-15T19:23:02.976Z,39.95
2023-04-15T19:25:40.771Z,34.92
2023-04-15T19:28:24.676Z,36.13
2023-04-15T19:33:37.251Z,38.22
2023-04-15T19:38:40.109Z,43.67
2023-04-15T19:41:11.201Z,38.88
2023-04-15T19:43:49.306Z,36.45
2023-04-15T19:46:24.800Z,37.95
2023-04-15T19:49:09.196Z,37.20
2023-04-15T19:51:36.201Z,45.42
2023-04-15T19:54:06.166Z,50.05
2023-04-15T19:56:35.361Z,42.45
2023-04-15T19:59:05.741Z,42.88
2023-04-15T20:01:58.761Z,47.03
2023-04-15T20:05:06.873Z,45.13
2023-04-15T20:08:43.136Z,36.75
2023-04-15T20:13:59.393Z,39.55
2023-04-15T20:16:41.780Z,42.13
2023-04-15T20:19:13.443Z,40.50
2023-04-15T20:21:43.089Z,37.80
2023-04-15T20:24:43.436Z,40.08
2023-04-15T20:36:02.941Z,41.78
2023-04-15T20:58:23.120Z,41.33
2023-04-15T21:17:08.626Z,43.70
2023-04-15T21:19:54.760Z,39.60
2023-04-15T21:23:07.382Z,38.25
2023-04-15T21:33:56.386Z,40.35
2023-04-15T21:39:45.801Z,38.80
2023-04-15T21:42:19.011Z,38.20
2023-04-15T21:44:52.964Z,38.67
2023-04-15T21:50:30.425Z,43.25
2023-04-15T21:52:58.028Z,39.15
2023-04-15T21:56:11.378Z,39.60
2023-04-15T21:58:42.020Z,42.90
2023-04-15T22:01:19.338Z,44.83
2023-04-15T22:06:21.444Z,44.83
2023-04-15T22:08:56.927Z,42.22
2023-04-15T22:19:46.765Z,51.88
2023-04-15T22:22:18.251Z,43.38
2023-04-15T22:31:54.927Z,45.75
2023-04-15T22:34:23.711Z,50.15
2023-04-15T22:36:56.102Z,56.45
2023-04-15T22:39:26.383Z,52.55
2023-04-15T22:41:53.586Z,47.38
2023-04-15T22:44:20.698Z,46.67
2023-04-15T22:46:48.560Z,46.55
2023-04-15T22:49:16.918Z,49.97
2023-04-15T22:51:44.566Z,49.10
2023-04-15T22:54:26.022Z,47.15
2023-04-15T22:56:56.143Z,46.35
2023-04-15T22:59:23.178Z,47.33
2023-04-15T23:01:52.344Z,47.75
2023-04-15T23:04:23.108Z,46.70
2023-04-15T23:06:53.540Z,42.63
2023-04-15T23:09:22.800Z,43.15
2023-04-15T23:11:52.748Z,45.58
2023-04-15T23:14:19.652Z,46.80
2023-04-15T23:16:46.829Z,45.10
2023-04-15T23:19:14.531Z,44.60
2023-04-15T23:22:15.958Z,48.55
2023-04-15T23:24:44.592Z,49.17
2023-04-15T23:27:12.046Z,52.00
2023-04-15T23:29:39.410Z,48.15
2023-04-15T23:32:06.935Z,45.72
2023-04-15T23:34:34.083Z,47.72
2023-04-15T23:37:01.156Z,50.38
2023-04-15T23:39:28.061Z,47.83
2023-04-15T23:41:55.038Z,47.08
2023-04-15T23:44:21.835Z,47.15
2023-04-15T23:49:15.601Z,44.10
2023-04-15T23:51:42.137Z,45.05
2023-04-15T23:54:08.713Z,42.20
2023-04-15T23:56:35.343Z,41.58
2023-04-15T23:59:01.861Z,48.58
